createdAt,value
2019-01-27T00:01:25.852Z,67.87
2019-01-27T00:04:30.008Z,66.60
2019-01-27T00:07:34.163Z,64.93
2019-01-27T00:10:38.308Z,67.03
2019-01-27T00:13:42.437Z,67.10
2019-01-27T00:16:46.769Z,67.70
2019-01-27T00:19:50.894Z,72.03
2019-01-27T00:22:55.097Z,72.23
2019-01-27T00:25:59.193Z,72.27
2019-01-27T00:29:03.340Z,72.70
2019-01-27T00:32:07.458Z,74.00
2019-01-27T00:35:11.767Z,73.67
2019-01-27T00:38:15.867Z,76.77
2019-01-27T00:41:20.022Z,73.50
2019-01-27T00:47:37.059Z,79.33
2019-01-27T00:50:42.189Z,84.67
2019-01-27T00:53:48.439Z,81.23
2019-01-27T00:56:52.542Z,70.93
2019-01-27T00:59:56.954Z,70.53
2019-01-27T01:03:01.199Z,64.57
2019-01-27T01:06:05.620Z,60.63
2019-01-27T01:09:11.368Z,65.10
2019-01-27T01:12:15.712Z,65.23
2019-01-27T01:15:19.911Z,67.87
2019-01-27T01:18:24.046Z,68.57
2019-01-27T01:21:28.136Z,69.07
2019-01-27T01:24:32.269Z,68.07
2019-01-27T01:27:36.444Z,68.30
2019-01-27T01:30:40.645Z,73.73
2019-01-27T01:33:44.859Z,72.00
2019-01-27T01:36:48.981Z,78.77
2019-01-27T01:39:53.102Z,82.97
2019-01-27T01:42:57.320Z,85.13
2019-01-27T01:46:01.488Z,81.33
2019-01-27T01:49:05.608Z,75.03
2019-01-27T01:52:09.719Z,78.53
2019-01-27T01:55:14.096Z,77.67
2019-01-27T01:58:18.192Z,73.43
2019-01-27T02:01:22.320Z,74.00
2019-01-27T02:04:26.447Z,73.83
2019-01-27T02:07:30.569Z,79.53
2019-01-27T02:10:34.650Z,75.73
2019-01-27T02:13:38.845Z,80.80
2019-01-27T02:16:43.085Z,81.30
2019-01-27T02:19:47.297Z,78.07
2019-01-27T02:22:51.400Z,74.27
2019-01-27T02:25:55.623Z,76.73
2019-01-27T02:28:59.807Z,75.73
2019-01-27T02:32:03.958Z,72.43
2019-01-27T02:35:08.261Z,70.97
2019-01-27T02:38:12.502Z,73.17
2019-01-27T02:41:16.723Z,73.43
2019-01-27T02:44:20.913Z,71.50
2019-01-27T02:47:25.025Z,73.73
2019-01-27T02:50:29.165Z,77.17
2019-01-27T02:53:33.330Z,78.10
2019-01-27T02:56:37.459Z,75.43
2019-01-27T02:59:41.624Z,74.77
2019-01-27T03:02:45.809Z,72.43
2019-01-27T03:06:12.146Z,76.60
2019-01-27T03:09:24.863Z,72.87
2019-01-27T03:12:29.034Z,70.97
2019-01-27T03:15:33.223Z,75.63
2019-01-27T03:18:37.320Z,71.13
2019-01-27T03:21:41.458Z,74.53
2019-01-27T03:24:45.614Z,80.07
2019-01-27T03:27:49.748Z,76.30
2019-01-27T03:30:53.916Z,89.03
2019-01-27T03:33:58.123Z,81.47
2019-01-27T03:37:02.267Z,81.17
2019-01-27T03:40:07.172Z,81.20
2019-01-27T03:43:11.274Z,78.57
2019-01-27T03:46:15.473Z,78.60
2019-01-27T03:49:19.580Z,76.60
2019-01-27T03:52:23.704Z,77.23
2019-01-27T03:55:27.935Z,78.50
2019-01-27T03:58:32.052Z,82.40
2019-01-27T04:01:36.140Z,78.93
2019-01-27T04:04:40.359Z,80.37
2019-01-27T04:07:44.566Z,80.90
2019-01-27T04:10:48.752Z,81.87
2019-01-27T04:13:52.912Z,79.87
2019-01-27T04:16:57.057Z,78.40
2019-01-27T04:20:01.240Z,78.57
2019-01-27T04:23:05.451Z,76.40
2019-01-27T04:26:09.622Z,77.10
2019-01-27T04:29:13.760Z,75.43
2019-01-27T04:32:17.851Z,78.53
2019-01-27T04:35:21.976Z,74.37
2019-01-27T04:38:26.107Z,77.03
2019-01-27T04:41:30.231Z,75.67
2019-01-27T04:44:34.339Z,76.87
2019-01-27T04:47:38.533Z,77.07
2019-01-27T04:50:42.716Z,76.53
2019-01-27T04:53:46.925Z,77.57
2019-01-27T04:56:51.092Z,75.57
2019-01-27T04:59:55.258Z,81.17
2019-01-27T05:03:24.234Z,76.70
2019-01-27T05:06:28.414Z,78.30
2019-01-27T05:09:32.620Z,83.90
2019-01-27T05:12:36.752Z,86.07
2019-01-27T05:15:40.916Z,84.07
2019-01-27T05:18:45.054Z,85.17
2019-01-27T05:21:49.160Z,83.70
2019-01-27T05:24:53.401Z,83.73
2019-01-27T05:27:57.563Z,83.80
2019-01-27T05:31:01.688Z,81.87
2019-01-27T05:34:05.820Z,80.40
2019-01-27T05:37:10.026Z,81.20
2019-01-27T05:40:14.273Z,82.80
2019-01-27T05:43:18.477Z,78.10
2019-01-27T05:46:22.652Z,79.23
2019-01-27T05:49:26.877Z,77.27
2019-01-27T05:52:31.089Z,81.67
2019-01-27T05:55:35.213Z,76.30
2019-01-27T05:58:39.303Z,77.53
2019-01-27T06:01:43.432Z,77.00
2019-01-27T06:04:47.523Z,76.23
2019-01-27T06:07:51.659Z,72.00
2019-01-27T06:10:55.880Z,70.40
2019-01-27T06:14:00.010Z,70.10
2019-01-27T06:17:04.162Z,74.57
2019-01-27T06:20:10.369Z,78.43
2019-01-27T06:23:14.552Z,75.90
2019-01-27T06:26:18.757Z,71.23
2019-01-27T06:29:22.922Z,61.97
2019-01-27T06:32:48.672Z,65.43
2019-01-27T06:35:52.887Z,59.57
2019-01-27T06:38:57.084Z,62.43
2019-01-27T06:42:01.232Z,59.73
2019-01-27T06:45:06.021Z,57.70
2019-01-27T06:48:10.148Z,55.50
2019-01-27T06:51:14.279Z,57.03
2019-01-27T06:54:18.399Z,58.13
2019-01-27T06:57:22.601Z,59.50
2019-01-27T07:00:51.829Z,58.30
2019-01-27T07:04:11.608Z,53.73
2019-01-27T07:07:44.936Z,49.50
2019-01-27T07:11:08.012Z,51.33
2019-01-27T07:14:31.176Z,52.00
2019-01-27T07:17:47.521Z,50.20
2019-01-27T07:21:25.683Z,49.30
2019-01-27T07:24:55.196Z,48.87
2019-01-27T07:28:17.490Z,44.83
2019-01-27T07:31:40.653Z,44.13
2019-01-27T07:35:03.727Z,43.83
2019-01-27T07:38:17.153Z,42.83
2019-01-27T07:41:40.292Z,42.83
2019-01-27T07:45:03.484Z,41.40
2019-01-27T07:48:18.052Z,40.20
2019-01-27T07:51:50.361Z,41.63
2019-01-27T07:55:08.523Z,42.00
2019-01-27T07:58:43.797Z,43.33
2019-01-27T08:01:54.112Z,40.77
2019-01-27T08:05:09.406Z,42.90
2019-01-27T08:08:33.935Z,41.13
2019-01-27T08:11:43.760Z,40.27
2019-01-27T08:15:04.376Z,38.73
2019-01-27T08:18:29.449Z,39.30
2019-01-27T08:21:52.536Z,41.20
2019-01-27T08:25:14.972Z,38.67
2019-01-27T08:28:36.985Z,37.37
2019-01-27T08:31:51.404Z,37.27
2019-01-27T08:35:03.692Z,37.97
2019-01-27T08:38:16.648Z,37.67
2019-01-27T08:41:39.774Z,36.63
2019-01-27T08:44:50.837Z,36.13
2019-01-27T08:47:54.939Z,36.03
2019-01-27T08:50:59.219Z,36.27
2019-01-27T08:54:03.367Z,37.27
2019-01-27T08:57:07.678Z,38.37
2019-01-27T09:00:17.704Z,37.57
2019-01-27T09:03:40.839Z,38.60
2019-01-27T09:06:54.910Z,36.77
2019-01-27T09:10:09.580Z,35.27
2019-01-27T09:13:35.424Z,35.57
2019-01-27T09:16:57.721Z,34.50
2019-01-27T09:20:20.836Z,34.97
2019-01-27T09:23:43.949Z,34.47
2019-01-27T09:27:01.069Z,31.33
2019-01-27T09:30:30.133Z,32.90
2019-01-27T09:33:44.252Z,31.20
2019-01-27T09:37:18.522Z,32.30
2019-01-27T09:40:52.959Z,30.90
2019-01-27T09:44:17.641Z,28.90
2019-01-27T09:47:39.812Z,32.37
2019-01-27T09:51:05.953Z,29.23
2019-01-27T09:54:41.793Z,28.60
2019-01-27T09:57:57.944Z,30.57
2019-01-27T10:01:24.200Z,29.40
2019-01-27T10:04:41.669Z,26.77
2019-01-27T10:08:10.807Z,27.03
2019-01-27T10:11:26.654Z,25.27
2019-01-27T10:14:52.836Z,24.30
2019-01-27T10:18:11.523Z,24.00
2019-01-27T10:21:46.779Z,22.50
2019-01-27T10:24:59.862Z,21.50
2019-01-27T10:28:26.436Z,21.00
2019-01-27T10:31:58.800Z,20.13
2019-01-27T10:35:21.920Z,20.27
2019-01-27T10:38:43.944Z,20.53
2019-01-27T10:41:56.408Z,20.20
2019-01-27T10:45:10.408Z,20.20
2019-01-27T10:48:33.574Z,19.13
2019-01-27T10:51:44.953Z,18.87
2019-01-27T10:55:01.969Z,20.10
2019-01-27T10:58:26.507Z,18.93
2019-01-27T11:01:59.465Z,19.57
2019-01-27T11:05:16.726Z,18.47
2019-01-27T11:08:38.172Z,19.20
2019-01-27T11:12:10.095Z,23.00
2019-01-27T11:15:37.683Z,21.87
2019-01-27T11:18:50.356Z,24.10
2019-01-27T11:22:12.175Z,24.13
2019-01-27T11:25:31.339Z,22.60
2019-01-27T11:28:53.409Z,24.53
2019-01-27T11:32:25.729Z,26.20
2019-01-27T11:35:47.868Z,26.73
2019-01-27T11:39:11.012Z,23.50
2019-01-27T11:42:23.646Z,23.33
2019-01-27T11:45:49.873Z,21.53
2019-01-27T11:48:58.855Z,22.83
2019-01-27T11:52:15.431Z,23.63
2019-01-27T11:55:15.053Z,25.87
2019-01-27T11:58:19.389Z,29.67
2019-01-27T12:01:23.597Z,32.20
2019-01-27T12:04:27.740Z,29.60
2019-01-27T12:07:31.938Z,35.40
2019-01-27T12:10:36.241Z,37.67
2019-01-27T12:13:40.519Z,38.27
2019-01-27T12:16:44.729Z,38.50
2019-01-27T12:19:48.861Z,38.90
2019-01-27T12:22:53.155Z,39.97
2019-01-27T12:25:57.363Z,41.10
2019-01-27T12:29:01.650Z,40.73
2019-01-27T12:32:07.140Z,40.37
2019-01-27T12:35:11.305Z,38.63
2019-01-27T12:38:15.578Z,40.07
2019-01-27T12:41:19.800Z,39.17
2019-01-27T12:44:23.916Z,37.70
2019-01-27T12:47:29.844Z,40.50
2019-01-27T12:50:34.039Z,42.73
2019-01-27T12:53:38.318Z,42.30
2019-01-27T12:56:42.515Z,41.70
2019-01-27T12:59:47.305Z,41.83
2019-01-27T13:02:51.570Z,49.07
2019-01-27T13:05:55.778Z,61.13
2019-01-27T13:09:00.134Z,83.07
2019-01-27T13:12:04.383Z,65.53
2019-01-27T13:15:10.063Z,62.60
2019-01-27T13:18:14.213Z,57.53
2019-01-27T13:21:18.324Z,54.47
2019-01-27T13:24:22.627Z,52.23
2019-01-27T13:27:29.240Z,52.43
2019-01-27T13:30:33.464Z,54.63
2019-01-27T13:33:37.685Z,54.43
2019-01-27T13:36:41.911Z,47.57
2019-01-27T13:39:46.105Z,47.53
2019-01-27T13:42:51.642Z,56.93
2019-01-27T13:45:55.886Z,54.93
2019-01-27T13:49:00.111Z,49.87
2019-01-27T13:52:04.319Z,51.07
2019-01-27T13:55:11.803Z,49.60
2019-01-27T13:58:15.967Z,48.33
2019-01-27T14:01:20.183Z,46.30
2019-01-27T14:04:24.309Z,43.70
2019-01-27T14:07:28.469Z,43.10
2019-01-27T14:10:32.717Z,40.60
2019-01-27T14:13:36.837Z,38.90
2019-01-27T14:16:41.019Z,39.60
2019-01-27T14:19:45.243Z,39.17
2019-01-27T14:22:49.335Z,39.40
2019-01-27T14:25:53.773Z,38.47
2019-01-27T14:28:58.005Z,38.00
2019-01-27T14:32:02.323Z,34.83
2019-01-27T14:35:07.066Z,35.87
2019-01-27T14:38:11.278Z,34.57
2019-01-27T14:41:15.471Z,34.53
2019-01-27T14:44:19.611Z,35.40
2019-01-27T14:47:23.885Z,35.20
2019-01-27T14:50:36.990Z,35.50
2019-01-27T14:53:41.188Z,36.57
2019-01-27T14:56:46.607Z,35.23
2019-01-27T14:59:50.752Z,33.70
2019-01-27T15:02:55.237Z,33.90
2019-01-27T15:05:59.454Z,33.20
2019-01-27T15:09:04.675Z,33.20
2019-01-27T15:12:08.865Z,35.00
2019-01-27T15:15:15.408Z,33.87
2019-01-27T15:18:19.873Z,34.93
2019-01-27T15:21:26.965Z,33.30
2019-01-27T15:24:31.366Z,32.43
2019-01-27T15:27:35.850Z,33.50
2019-01-27T15:30:40.250Z,33.13
2019-01-27T15:33:44.581Z,30.87
2019-01-27T15:36:48.801Z,31.37
2019-01-27T15:39:53.012Z,32.67
2019-01-27T15:42:57.977Z,32.00
2019-01-27T15:46:02.300Z,31.07
2019-01-27T15:49:06.470Z,33.07
2019-01-27T15:52:10.623Z,32.20
2019-01-27T15:55:15.905Z,31.47
2019-01-27T15:58:20.174Z,31.37
2019-01-27T16:01:24.794Z,30.07
2019-01-27T16:04:51.404Z,32.80
2019-01-27T16:07:55.606Z,32.03
2019-01-27T16:10:59.780Z,31.80
2019-01-27T16:14:04.267Z,31.37
2019-01-27T16:17:08.420Z,30.63
2019-01-27T16:20:13.059Z,31.13
2019-01-27T16:23:36.215Z,33.37
2019-01-27T16:26:40.380Z,32.97
2019-01-27T16:29:51.104Z,31.23
2019-01-27T16:33:01.624Z,32.87
2019-01-27T16:36:06.979Z,31.13
2019-01-27T16:39:12.087Z,35.57
2019-01-27T16:42:16.248Z,36.40
2019-01-27T16:45:20.444Z,35.53
2019-01-27T16:48:24.613Z,35.90
2019-01-27T16:51:28.701Z,36.80
2019-01-27T16:54:32.825Z,34.60
2019-01-27T16:57:37.117Z,37.27
2019-01-27T17:00:41.549Z,37.17
2019-01-27T17:03:45.819Z,37.10
2019-01-27T17:06:49.977Z,38.40
2019-01-27T17:09:54.071Z,39.37
2019-01-27T17:12:58.211Z,37.10
2019-01-27T17:16:02.582Z,36.43
2019-01-27T17:19:06.820Z,36.63
2019-01-27T17:22:10.920Z,37.57
2019-01-27T17:25:15.372Z,35.83
2019-01-27T17:28:19.486Z,36.00
2019-01-27T17:31:23.905Z,36.03
2019-01-27T17:34:28.036Z,36.27
2019-01-27T17:37:32.402Z,35.40
2019-01-27T17:40:36.619Z,36.37
2019-01-27T17:43:40.822Z,38.30
2019-01-27T17:46:45.371Z,37.57
2019-01-27T17:49:49.523Z,37.63
2019-01-27T17:52:53.732Z,37.03
2019-01-27T17:55:57.957Z,36.37
2019-01-27T17:59:30.403Z,37.80
2019-01-27T18:02:51.687Z,38.17
2019-01-27T18:06:15.355Z,38.20
2019-01-27T18:09:26.904Z,37.67
2019-01-27T18:12:39.023Z,38.57
2019-01-27T18:15:43.647Z,50.55
2019-01-27T18:18:49.392Z,42.13
2019-01-27T18:21:55.184Z,39.33
2019-01-27T18:24:59.704Z,39.83
2019-01-27T18:28:03.954Z,42.13
2019-01-27T18:31:10.161Z,40.80
2019-01-27T18:34:15.004Z,41.67
2019-01-27T18:37:19.693Z,41.23
2019-01-27T18:40:25.881Z,41.07
2019-01-27T18:43:29.804Z,45.90
2019-01-27T18:46:34.205Z,48.13
2019-01-27T18:49:39.243Z,48.30
2019-01-27T18:52:43.620Z,49.57
2019-01-27T18:56:13.087Z,50.30
2019-01-27T18:59:45.184Z,49.07
2019-01-27T19:03:02.262Z,49.47
2019-01-27T19:06:30.773Z,49.47
2019-01-27T19:09:41.871Z,51.77
2019-01-27T19:13:11.982Z,51.77
2019-01-27T19:16:35.167Z,50.17
2019-01-27T19:19:54.180Z,49.27
2019-01-27T19:23:23.332Z,50.70
2019-01-27T19:26:47.653Z,51.20
2019-01-27T19:30:23.476Z,50.97
2019-01-27T19:33:34.530Z,51.50
2019-01-27T19:36:51.206Z,57.93
2019-01-27T19:40:13.747Z,66.73
2019-01-27T19:43:45.762Z,68.47
2019-01-27T19:47:08.251Z,66.90
2019-01-27T19:50:37.699Z,64.37
2019-01-27T19:53:50.749Z,67.27
2019-01-27T19:57:16.868Z,66.57
2019-01-27T20:00:44.390Z,64.83
2019-01-27T20:03:58.391Z,68.13
2019-01-27T20:07:15.103Z,66.30
2019-01-27T20:10:39.456Z,68.83
2019-01-27T20:13:59.188Z,66.07
2019-01-27T20:17:34.835Z,68.00
2019-01-27T20:20:52.769Z,62.13
2019-01-27T20:24:32.569Z,60.87
2019-01-27T20:28:04.827Z,61.47
2019-01-27T20:31:40.661Z,61.23
2019-01-27T20:35:03.535Z,59.97
2019-01-27T20:38:18.693Z,61.87
2019-01-27T20:41:43.684Z,59.80
2019-01-27T20:45:10.703Z,60.33
2019-01-27T20:48:23.557Z,60.10
2019-01-27T20:51:43.111Z,68.07
2019-01-27T20:55:21.566Z,70.03
2019-01-27T20:58:43.665Z,75.30
2019-01-27T21:02:06.775Z,75.90
2019-01-27T21:05:22.877Z,83.27
2019-01-27T21:08:48.815Z,85.47
2019-01-27T21:12:24.455Z,90.67
2019-01-27T21:15:37.657Z,105.60
2019-01-27T21:18:46.919Z,123.57
2019-01-27T21:21:51.197Z,139.10
2019-01-27T21:24:55.665Z,135.83
2019-01-27T21:27:59.933Z,113.03
2019-01-27T21:31:04.264Z,101.33
2019-01-27T21:34:08.482Z,89.67
2019-01-27T21:37:12.656Z,90.87
2019-01-27T21:40:18.965Z,94.13
2019-01-27T21:43:23.256Z,115.47
2019-01-27T21:46:27.586Z,109.30
2019-01-27T21:49:31.801Z,114.87
2019-01-27T21:52:36.128Z,109.17
2019-01-27T21:55:40.313Z,104.87
2019-01-27T21:58:44.572Z,94.10
2019-01-27T22:01:48.746Z,82.80
2019-01-27T22:04:55.832Z,78.20
2019-01-27T22:07:59.976Z,75.00
2019-01-27T22:11:07.068Z,71.10
2019-01-27T22:14:11.221Z,74.13
2019-01-27T22:17:15.436Z,71.30
2019-01-27T22:20:19.552Z,74.20
2019-01-27T22:23:23.688Z,83.83
2019-01-27T22:26:27.848Z,82.60
2019-01-27T22:29:33.224Z,81.33
2019-01-27T22:32:37.584Z,81.47
2019-01-27T22:35:41.981Z,82.50
2019-01-27T22:38:46.220Z,85.50
2019-01-27T22:41:50.373Z,87.17
2019-01-27T22:44:54.637Z,95.77
2019-01-27T22:47:58.843Z,119.47
2019-01-27T22:51:02.989Z,106.67
2019-01-27T22:54:07.192Z,85.70
2019-01-27T22:57:11.376Z,95.87
2019-01-27T23:00:26.354Z,92.73
2019-01-27T23:03:35.073Z,102.40
2019-01-27T23:06:39.239Z,102.40
2019-01-27T23:09:43.356Z,99.93
2019-01-27T23:12:47.481Z,96.30
2019-01-27T23:15:51.627Z,103.27
2019-01-27T23:18:55.771Z,97.20
2019-01-27T23:21:59.881Z,97.43
2019-01-27T23:25:04.131Z,90.67
2019-01-27T23:28:08.304Z,93.50
2019-01-27T23:31:12.454Z,93.77
2019-01-27T23:34:16.632Z,97.83
2019-01-27T23:37:20.776Z,99.57
2019-01-27T23:40:24.873Z,102.13
2019-01-27T23:43:29.017Z,100.10
2019-01-27T23:46:33.185Z,106.40
2019-01-27T23:49:37.320Z,107.33
2019-01-27T23:52:41.495Z,99.53
2019-01-27T23:55:45.659Z,97.47
2019-01-27T23:58:49.825Z,99.87
